createdAt,value
2023-05-17T00:01:45.764Z,95452.19
2023-05-17T00:04:12.610Z,95456.19
2023-05-17T00:06:39.280Z,95452.84
2023-05-17T00:09:06.021Z,95459.69
2023-05-17T00:11:32.662Z,95460.81
2023-05-17T00:13:59.329Z,95460.16
2023-05-17T00:16:25.951Z,95471.78
2023-05-17T00:18:52.822Z,95471.31
2023-05-17T00:21:19.558Z,95473.81
2023-05-17T00:23:46.314Z,95473.50
2023-05-17T00:26:12.986Z,95483.56
2023-05-17T00:28:39.969Z,95486.91
2023-05-17T00:31:06.669Z,95490.59
2023-05-17T00:33:33.408Z,95490.41
2023-05-17T00:36:00.044Z,95494.56
2023-05-17T00:38:26.710Z,95491.84
2023-05-17T00:40:53.320Z,95495.34
2023-05-17T00:43:19.915Z,95498.06
2023-05-17T00:45:46.672Z,95497.28
2023-05-17T00:48:13.659Z,95494.38
2023-05-17T00:50:40.994Z,95496.44
2023-05-17T00:53:09.371Z,95495.63
2023-05-17T00:55:36.041Z,95506.44
2023-05-17T00:58:02.721Z,95503.59
2023-05-17T01:00:29.392Z,95498.66
2023-05-17T01:02:56.179Z,95501.38
2023-05-17T01:05:23.066Z,95500.56
2023-05-17T01:07:49.745Z,95500.56
2023-05-17T01:10:16.421Z,95502.78
2023-05-17T01:12:55.343Z,95505.97
2023-05-17T01:15:28.645Z,95506.81
2023-05-17T01:18:23.854Z,95504.72
2023-05-17T01:20:52.778Z,95512.84
2023-05-17T01:23:42.185Z,95510.75
2023-05-17T01:26:18.460Z,95511.84
2023-05-17T01:28:52.560Z,95516.50
2023-05-17T01:31:20.447Z,95516.81
2023-05-17T01:33:47.846Z,95518.69
2023-05-17T01:36:14.695Z,95516.81
2023-05-17T01:38:41.664Z,95518.69
2023-05-17T01:41:15.670Z,95523.63
2023-05-17T01:44:00.313Z,95524.13
2023-05-17T01:46:33.216Z,95531.78
2023-05-17T01:49:21.593Z,95531.78
2023-05-17T01:51:57.559Z,95537.69
2023-05-17T01:54:31.718Z,95536.41
2023-05-17T01:56:59.375Z,95532.09
2023-05-17T01:59:27.702Z,95532.38
2023-05-17T02:01:58.872Z,95538.13
2023-05-17T02:04:25.668Z,95542.75
2023-05-17T02:06:52.710Z,95545.78
2023-05-17T02:09:19.383Z,95539.25
2023-05-17T02:11:46.132Z,95542.75
2023-05-17T02:14:12.870Z,95541.97
2023-05-17T02:16:40.144Z,95541.44
2023-05-17T02:19:06.796Z,95547.38
2023-05-17T02:21:33.414Z,95554.41
2023-05-17T02:24:00.151Z,95553.28
2023-05-17T02:26:26.848Z,95553.28
2023-05-17T02:28:54.024Z,95555.84
2023-05-17T02:31:21.022Z,95567.78
2023-05-17T02:33:49.517Z,95564.28
2023-05-17T02:36:16.235Z,95555.31
2023-05-17T02:38:42.900Z,95557.72
2023-05-17T02:41:09.701Z,95557.72
2023-05-17T02:43:36.373Z,95565.84
2023-05-17T02:46:03.992Z,95563.16
2023-05-17T02:48:30.685Z,95573.69
2023-05-17T02:50:57.253Z,95577.69
2023-05-17T02:53:24.111Z,95578.50
2023-05-17T02:55:50.834Z,95579.00
2023-05-17T02:58:17.452Z,95582.50
2023-05-17T03:00:46.721Z,95586.00
2023-05-17T03:03:14.940Z,95588.72
2023-05-17T03:05:41.732Z,95590.03
2023-05-17T03:08:09.016Z,95604.06
2023-05-17T03:10:36.220Z,95597.03
2023-05-17T03:13:03.244Z,95605.69
2023-05-17T03:15:34.605Z,95604.25
2023-05-17T03:18:01.473Z,95608.28
2023-05-17T03:20:28.840Z,95609.06
2023-05-17T03:22:56.262Z,95615.00
2023-05-17T03:25:22.950Z,95620.91
2023-05-17T03:27:50.147Z,95616.78
2023-05-17T03:30:16.992Z,95623.50
2023-05-17T03:32:45.505Z,95624.25
2023-05-17T03:35:12.178Z,95628.44
2023-05-17T03:37:43.263Z,95628.91
2023-05-17T03:40:10.405Z,95636.25
2023-05-17T03:42:37.091Z,95648.22
2023-05-17T03:45:05.445Z,95641.19
2023-05-17T03:47:32.330Z,95642.31
2023-05-17T03:49:59.471Z,95641.19
2023-05-17T03:52:26.227Z,95648.81
2023-05-17T03:54:53.017Z,95656.19
2023-05-17T03:57:19.918Z,95659.69
2023-05-17T03:59:46.591Z,95661.13
2023-05-17T04:02:16.060Z,95660.91
2023-05-17T04:04:49.251Z,95662.03
2023-05-17T04:07:17.662Z,95670.19
2023-05-17T04:09:44.783Z,95671.28
2023-05-17T04:12:11.454Z,95681.81
2023-05-17T04:14:38.866Z,95680.19
2023-05-17T04:17:05.629Z,95685.63
2023-05-17T04:19:32.867Z,95683.22
2023-05-17T04:22:00.608Z,95687.53
2023-05-17T04:24:27.745Z,95689.78
2023-05-17T04:26:54.994Z,95690.06
2023-05-17T04:29:24.516Z,95690.69
2023-05-17T04:31:51.453Z,95699.13
2023-05-17T04:34:18.363Z,95699.75
2023-05-17T04:36:45.638Z,95701.97
2023-05-17T04:39:12.479Z,95704.97
2023-05-17T04:41:39.832Z,95701.97
2023-05-17T04:44:10.276Z,95713.44
2023-05-17T04:46:37.129Z,95716.75
2023-05-17T04:49:04.132Z,95718.94
2023-05-17T04:51:31.236Z,95716.03
2023-05-17T04:53:58.250Z,95726.69
2023-05-17T04:56:25.227Z,95727.31
2023-05-17T04:58:53.004Z,95724.09
2023-05-17T05:01:20.431Z,95725.94
2023-05-17T05:03:50.142Z,95726.09
2023-05-17T05:06:17.310Z,95717.19
2023-05-17T05:08:44.435Z,95721.00
2023-05-17T05:11:12.364Z,95730.44
2023-05-17T05:13:39.210Z,95726.59
2023-05-17T05:16:07.173Z,95731.22
2023-05-17T05:18:34.981Z,95733.94
2023-05-17T05:21:02.141Z,95737.75
2023-05-17T05:23:30.117Z,95739.38
2023-05-17T05:25:56.854Z,95739.38
2023-05-17T05:28:23.526Z,95742.56
2023-05-17T05:30:50.187Z,95739.84
2023-05-17T05:33:17.189Z,95739.06
2023-05-17T05:35:45.619Z,95741.78
2023-05-17T05:38:12.249Z,95740.97
2023-05-17T05:40:39.515Z,95739.06
2023-05-17T05:43:06.155Z,95736.84
2023-05-17T05:45:32.779Z,95733.81
2023-05-17T05:48:02.582Z,95741.34
2023-05-17T05:50:29.721Z,95738.03
2023-05-17T05:53:10.990Z,95738.22
2023-05-17T05:55:42.623Z,95745.75
2023-05-17T05:58:09.994Z,95740.03
2023-05-17T06:00:38.114Z,95739.72
2023-05-17T06:03:05.429Z,95749.34
2023-05-17T06:05:32.311Z,95748.56
2023-05-17T06:07:59.123Z,95750.34
2023-05-17T06:10:25.829Z,95756.28
2023-05-17T06:12:52.516Z,95766.03
2023-05-17T06:15:19.204Z,95766.81
2023-05-17T06:17:46.080Z,95762.19
2023-05-17T06:20:13.048Z,95771.63
2023-05-17T06:22:39.725Z,95771.94
2023-05-17T06:25:06.582Z,95777.38
2023-05-17T06:27:33.300Z,95782.50
2023-05-17T06:30:00.189Z,95784.09
2023-05-17T06:32:26.906Z,95784.59
2023-05-17T06:34:53.547Z,95785.19
2023-05-17T06:37:20.317Z,95794.13
2023-05-17T06:39:55.875Z,95792.44
2023-05-17T06:42:26.697Z,95789.72
2023-05-17T06:44:53.273Z,95796.75
2023-05-17T06:47:20.058Z,95796.75
2023-05-17T06:49:46.714Z,95795.94
2023-05-17T06:52:13.486Z,95800.25
2023-05-17T06:54:40.123Z,95805.19
2023-05-17T06:57:06.818Z,95811.22
2023-05-17T06:59:33.535Z,95815.34
2023-05-17T07:02:00.201Z,95812.63
2023-05-17T07:04:27.347Z,95811.84
2023-05-17T07:06:54.153Z,95817.25
2023-05-17T07:09:21.375Z,95819.84
2023-05-17T07:11:48.515Z,95824.97
2023-05-17T07:14:15.260Z,95821.66
2023-05-17T07:16:41.898Z,95826.66
2023-05-17T07:19:08.717Z,95826.06
2023-05-17T07:21:35.396Z,95823.22
2023-05-17T07:24:02.067Z,95821.72
2023-05-17T07:26:28.780Z,95825.31
2023-05-17T07:28:55.374Z,95825.88
2023-05-17T07:31:22.067Z,95818.47
2023-05-17T07:33:49.012Z,95822.25
2023-05-17T07:36:15.734Z,95829.81
2023-05-17T07:38:42.453Z,95842.06
2023-05-17T07:41:09.540Z,95832.56
2023-05-17T07:43:39.086Z,95833.09
2023-05-17T07:46:05.947Z,95835.88
2023-05-17T07:48:32.829Z,95829.66
2023-05-17T07:50:59.537Z,95833.88
2023-05-17T07:53:26.165Z,95826.25
2023-05-17T07:55:52.764Z,95826.09
2023-05-17T07:58:19.591Z,95834.91
2023-05-17T08:00:46.260Z,95833.97
2023-05-17T08:03:14.587Z,95837.66
2023-05-17T08:05:43.251Z,95836.88
2023-05-17T08:08:09.924Z,95831.44
2023-05-17T08:10:36.661Z,95833.84
2023-05-17T08:13:04.196Z,95832.22
2023-05-17T08:15:31.063Z,95840.41
2023-05-17T08:17:58.012Z,95836.88
2023-05-17T08:20:24.776Z,95847.13
2023-05-17T08:22:51.391Z,95842.84
2023-05-17T08:25:19.997Z,95844.63
2023-05-17T08:27:46.625Z,95842.06
2023-05-17T08:30:15.184Z,95843.53
2023-05-17T08:32:48.459Z,95843.84
2023-05-17T08:35:15.217Z,95851.06
2023-05-17T08:37:41.809Z,95852.34
2023-05-17T08:40:09.083Z,95853.16
2023-05-17T08:42:37.162Z,95851.69
2023-05-17T08:45:05.832Z,95861.94
2023-05-17T08:47:33.309Z,95862.94
2023-05-17T08:50:00.052Z,95870.63
2023-05-17T08:52:30.325Z,95876.84
2023-05-17T08:54:57.130Z,95877.66
2023-05-17T08:57:25.307Z,95875.75
2023-05-17T08:59:52.675Z,95872.06
2023-05-17T09:02:19.802Z,95871.28
2023-05-17T09:04:47.075Z,95876.44
2023-05-17T09:07:15.216Z,95884.00
2023-05-17T09:09:43.257Z,95876.94
2023-05-17T09:12:09.928Z,95880.00
2023-05-17T09:14:36.595Z,95879.84
2023-05-17T09:17:03.290Z,95876.44
2023-05-17T09:19:30.934Z,95880.13
2023-05-17T09:22:00.705Z,95882.69
2023-05-17T09:24:29.177Z,95883.78
2023-05-17T09:27:04.067Z,95891.63
2023-05-17T09:29:32.706Z,95887.41
2023-05-17T09:32:19.060Z,95880.34
2023-05-17T09:34:46.983Z,95883.09
2023-05-17T09:37:15.440Z,95872.94
2023-05-17T09:39:43.569Z,95881.88
2023-05-17T09:42:10.355Z,95875.28
2023-05-17T09:44:48.076Z,95872.94
2023-05-17T09:47:28.503Z,95870.00
2023-05-17T09:49:59.892Z,95876.53
2023-05-17T09:52:27.210Z,95874.06
2023-05-17T09:54:55.786Z,95873.41
2023-05-17T09:57:22.912Z,95871.63
2023-05-17T09:59:50.559Z,95873.56
2023-05-17T10:02:22.837Z,95865.69
2023-05-17T10:04:50.856Z,95873.03
2023-05-17T10:07:21.292Z,95870.88
2023-05-17T10:09:48.945Z,95871.75
2023-05-17T10:12:18.385Z,95872.81
2023-05-17T10:14:45.654Z,95865.72
2023-05-17T10:17:12.926Z,95870.53
2023-05-17T10:19:40.471Z,95868.59
2023-05-17T10:22:21.687Z,95867.78
2023-05-17T10:24:51.153Z,95879.38
2023-05-17T10:27:18.242Z,95869.75
2023-05-17T10:29:47.715Z,95881.69
2023-05-17T10:32:16.652Z,95874.31
2023-05-17T10:34:45.740Z,95869.63
2023-05-17T10:37:14.251Z,95856.75
2023-05-17T10:39:41.442Z,95856.84
2023-05-17T10:42:14.748Z,95860.31
2023-05-17T10:44:42.692Z,95855.69
2023-05-17T10:47:10.573Z,95855.75
2023-05-17T10:49:38.898Z,95857.69
2023-05-17T10:52:21.301Z,95854.06
2023-05-17T10:54:49.272Z,95847.72
2023-05-17T10:57:21.521Z,95851.28
2023-05-17T10:59:59.506Z,95852.44
2023-05-17T11:02:28.139Z,95844.56
2023-05-17T11:04:55.374Z,95844.72
2023-05-17T11:07:26.401Z,95839.56
2023-05-17T11:10:20.638Z,95841.16
2023-05-17T11:12:48.189Z,95834.56
2023-05-17T11:15:16.979Z,95829.63
2023-05-17T11:17:43.608Z,95829.88
2023-05-17T11:20:31.677Z,95830.66
2023-05-17T11:23:17.129Z,95835.25
2023-05-17T11:25:45.388Z,95829.78
2023-05-17T11:28:20.099Z,95831.72
2023-05-17T11:30:46.928Z,95824.25
2023-05-17T11:33:25.331Z,95821.56
2023-05-17T11:35:56.800Z,95820.63
2023-05-17T11:38:27.450Z,95820.63
2023-05-17T11:40:55.512Z,95815.16
2023-05-17T11:43:24.250Z,95816.09
2023-05-17T11:45:58.962Z,95821.56
2023-05-17T11:48:26.612Z,95823.38
2023-05-17T11:50:55.824Z,95816.75
2023-05-17T11:53:24.434Z,95822.78
2023-05-17T11:55:52.781Z,95818.69
2023-05-17T11:58:26.610Z,95819.72
2023-05-17T12:00:55.392Z,95829.53
2023-05-17T12:03:27.669Z,95823.63
2023-05-17T12:06:09.696Z,95831.03
2023-05-17T12:08:38.777Z,95830.19
2023-05-17T12:11:07.084Z,95836.66
2023-05-17T12:13:35.005Z,95837.31
2023-05-17T12:16:03.743Z,95835.59
2023-05-17T12:18:41.144Z,95842.22
2023-05-17T12:21:09.039Z,95848.38
2023-05-17T12:23:38.023Z,95853.03
2023-05-17T12:26:18.560Z,95843.56
2023-05-17T12:28:54.426Z,95845.38
2023-05-17T12:31:26.880Z,95844.13
2023-05-17T12:33:54.463Z,95849.72
2023-05-17T12:36:22.258Z,95838.78
2023-05-17T12:38:49.352Z,95839.91
2023-05-17T12:41:16.703Z,95841.84
2023-05-17T12:43:46.274Z,95834.31
2023-05-17T12:46:20.203Z,95847.22
2023-05-17T12:48:48.188Z,95841.84
2023-05-17T12:51:17.402Z,95847.78
2023-05-17T12:53:45.121Z,95842.63
2023-05-17T12:56:17.615Z,95847.78
2023-05-17T12:58:45.100Z,95837.31
2023-05-17T13:01:11.935Z,95838.56
2023-05-17T13:03:38.798Z,95840.63
2023-05-17T13:06:07.270Z,95841.22
2023-05-17T13:08:34.515Z,95844.50
2023-05-17T13:11:14.631Z,95842.72
2023-05-17T13:13:42.256Z,95841.34
2023-05-17T13:16:08.891Z,95838.28
2023-05-17T13:18:49.089Z,95840.00
2023-05-17T13:21:17.788Z,95842.88
2023-05-17T13:23:46.524Z,95833.09
2023-05-17T13:26:13.376Z,95833.19
2023-05-17T13:28:40.291Z,95823.56
2023-05-17T13:31:07.103Z,95832.00
2023-05-17T13:33:33.759Z,95819.31
2023-05-17T13:36:00.537Z,95822.00
2023-05-17T13:38:27.122Z,95817.88
2023-05-17T13:40:54.400Z,95814.59
2023-05-17T13:43:21.143Z,95815.69
2023-05-17T13:45:47.744Z,95821.63
2023-05-17T13:48:14.659Z,95811.38
2023-05-17T13:50:41.343Z,95815.97
2023-05-17T13:53:07.936Z,95820.94
2023-05-17T13:55:34.658Z,95813.66
2023-05-17T13:58:01.331Z,95819.09
2023-05-17T14:00:28.183Z,95817.31
2023-05-17T14:02:55.151Z,95816.91
2023-05-17T14:05:21.914Z,95815.47
2023-05-17T14:07:48.507Z,95823.97
2023-05-17T14:10:15.316Z,95816.72
2023-05-17T14:12:41.936Z,95824.06
2023-05-17T14:15:09.701Z,95817.75
2023-05-17T14:17:36.395Z,95814.41
2023-05-17T14:20:03.614Z,95811.75
2023-05-17T14:22:30.499Z,95808.31
2023-05-17T14:24:57.143Z,95815.09
2023-05-17T14:27:23.891Z,95811.56
2023-05-17T14:29:50.671Z,95806.13
2023-05-17T14:32:17.345Z,95806.31
2023-05-17T14:34:44.972Z,95810.47
2023-05-17T14:37:11.605Z,95802.75
2023-05-17T14:39:38.264Z,95809.91
2023-05-17T14:42:05.223Z,95807.31
2023-05-17T14:44:31.869Z,95807.03
2023-05-17T14:46:58.705Z,95809.88
2023-05-17T14:49:25.440Z,95816.94
2023-05-17T14:51:52.045Z,95807.31
2023-05-17T14:54:18.776Z,95821.28
2023-05-17T14:56:45.423Z,95816.66
2023-05-17T14:59:12.187Z,95819.63
2023-05-17T15:01:38.940Z,95816.00
2023-05-17T15:04:05.619Z,95822.53
2023-05-17T15:06:32.571Z,95822.13
2023-05-17T15:08:59.286Z,95819.00
2023-05-17T15:11:26.060Z,95830.28
2023-05-17T15:13:52.818Z,95823.97
2023-05-17T15:16:19.607Z,95828.50
2023-05-17T15:18:46.864Z,95824.31
2023-05-17T15:21:13.511Z,95822.53
2023-05-17T15:23:40.193Z,95832.03
2023-05-17T15:26:06.843Z,95825.47
2023-05-17T15:28:33.518Z,95822.94
2023-05-17T15:31:04.439Z,95823.78
2023-05-17T15:33:31.141Z,95824.75
2023-05-17T15:35:58.412Z,95814.72
2023-05-17T15:38:25.179Z,95819.63
2023-05-17T15:41:15.716Z,95822.38
2023-05-17T15:43:43.009Z,95821.56
2023-05-17T15:46:09.674Z,95825.81
2023-05-17T15:48:36.428Z,95835.47
2023-05-17T15:51:03.275Z,95830.13
2023-05-17T15:53:30.651Z,95844.03
2023-05-17T15:55:57.272Z,95836.22
2023-05-17T15:58:25.687Z,95845.66
2023-05-17T16:00:52.492Z,95848.53
2023-05-17T16:03:19.420Z,95845.97
2023-05-17T16:05:46.069Z,95852.22
2023-05-17T16:08:12.809Z,95842.66
2023-05-17T16:10:39.429Z,95842.56
2023-05-17T16:13:06.354Z,95842.81
2023-05-17T16:15:35.971Z,95837.56
2023-05-17T16:18:02.621Z,95850.72
2023-05-17T16:20:29.564Z,95843.50
2023-05-17T16:22:56.352Z,95849.59
2023-05-17T16:25:24.626Z,95853.81
2023-05-17T16:27:51.481Z,95854.41
2023-05-17T16:30:18.815Z,95854.19
2023-05-17T16:32:46.439Z,95851.91
2023-05-17T16:35:13.254Z,95856.13
2023-05-17T16:37:40.351Z,95860.00
2023-05-17T16:40:07.925Z,95857.94
2023-05-17T16:42:34.600Z,95853.75
2023-05-17T16:45:01.207Z,95866.50
2023-05-17T16:47:28.044Z,95866.50
2023-05-17T16:49:55.067Z,95854.66
2023-05-17T16:52:21.968Z,95861.25
2023-05-17T16:54:48.878Z,95864.94
2023-05-17T16:57:16.132Z,95865.25
2023-05-17T16:59:42.768Z,95856.22
2023-05-17T17:02:09.622Z,95864.09
2023-05-17T17:04:36.382Z,95877.56
2023-05-17T17:07:03.418Z,95861.59
2023-05-17T17:09:30.120Z,95869.47
2023-05-17T17:11:56.810Z,95878.59
2023-05-17T17:14:23.564Z,95870.50
2023-05-17T17:16:50.171Z,95872.91
2023-05-17T17:19:16.814Z,95876.53
2023-05-17T17:21:43.546Z,95882.03
2023-05-17T17:24:10.167Z,95878.81
2023-05-17T17:26:36.796Z,95875.00
2023-05-17T17:29:04.554Z,95881.66
2023-05-17T17:31:34.288Z,95877.47
2023-05-17T17:34:01.045Z,95884.59
2023-05-17T17:36:27.764Z,95885.06
2023-05-17T17:38:54.369Z,95880.03
2023-05-17T17:41:21.053Z,95886.00
2023-05-17T17:43:47.789Z,95888.13
2023-05-17T17:46:14.384Z,95881.19
2023-05-17T17:48:42.017Z,95892.28
2023-05-17T17:51:08.609Z,95891.41
2023-05-17T17:53:35.311Z,95891.16
2023-05-17T17:56:01.926Z,95881.78
2023-05-17T17:58:28.599Z,95892.72
2023-05-17T18:00:55.461Z,95899.25
2023-05-17T18:03:22.197Z,95900.50
2023-05-17T18:05:48.811Z,95910.34
2023-05-17T18:08:15.596Z,95907.19
2023-05-17T18:10:42.362Z,95902.88
2023-05-17T18:13:09.055Z,95922.09
2023-05-17T18:15:35.726Z,95917.63
2023-05-17T18:18:02.509Z,95918.53
2023-05-17T18:20:29.472Z,95921.66
2023-05-17T18:22:56.300Z,95916.13
2023-05-17T18:25:22.983Z,95918.69
2023-05-17T18:27:49.696Z,95919.91
2023-05-17T18:30:17.350Z,95923.00
2023-05-17T18:32:44.737Z,95926.06
2023-05-17T18:35:11.616Z,95931.50
2023-05-17T18:37:38.323Z,95942.19
2023-05-17T18:40:05.512Z,95933.75
2023-05-17T18:42:32.271Z,95946.97
2023-05-17T18:44:58.863Z,95941.06
2023-05-17T18:47:25.743Z,95946.22
2023-05-17T18:49:52.597Z,95949.47
2023-05-17T18:52:19.413Z,95948.34
2023-05-17T18:54:46.038Z,95948.41
2023-05-17T18:57:12.655Z,95950.00
2023-05-17T18:59:39.498Z,95947.28
2023-05-17T19:02:06.141Z,95961.72
2023-05-17T19:04:32.984Z,95957.41
2023-05-17T19:06:59.838Z,95960.63
2023-05-17T19:09:26.507Z,95969.91
2023-05-17T19:11:54.213Z,95968.50
2023-05-17T19:14:20.909Z,95973.94
2023-05-17T19:16:47.616Z,95978.41
2023-05-17T19:19:14.265Z,95978.59
2023-05-17T19:21:41.138Z,95979.88
2023-05-17T19:24:07.875Z,95982.44
2023-05-17T19:26:34.659Z,95976.66
2023-05-17T19:29:01.369Z,95971.66
2023-05-17T19:31:28.020Z,95984.97
2023-05-17T19:33:54.873Z,95986.91
2023-05-17T19:36:21.463Z,95985.78
2023-05-17T19:38:49.944Z,95996.97
2023-05-17T19:41:18.697Z,95995.53
2023-05-17T19:43:45.454Z,95992.31
2023-05-17T19:46:12.136Z,96002.72
2023-05-17T19:48:38.900Z,96000.63
2023-05-17T19:51:05.768Z,95999.16
2023-05-17T19:53:43.895Z,96001.72
2023-05-17T19:56:17.969Z,96004.91
2023-05-17T19:58:44.584Z,95999.78
2023-05-17T20:01:11.182Z,96005.50
2023-05-17T20:03:37.896Z,96001.16
2023-05-17T20:06:04.776Z,95998.97
2023-05-17T20:08:31.368Z,95996.25
2023-05-17T20:10:58.062Z,95997.03
2023-05-17T20:13:24.809Z,95995.94
2023-05-17T20:15:51.497Z,95995.94
2023-05-17T20:18:18.088Z,95997.03
2023-05-17T20:20:44.748Z,95997.97
2023-05-17T20:23:11.643Z,95997.47
2023-05-17T20:25:38.255Z,96004.34
2023-05-17T20:28:04.920Z,96006.91
2023-05-17T20:30:31.742Z,96007.53
2023-05-17T20:32:58.616Z,96005.13
2023-05-17T20:35:25.271Z,96008.16
2023-05-17T20:37:52.321Z,96009.56
2023-05-17T20:40:19.726Z,96009.88
2023-05-17T20:42:46.326Z,96000.91
2023-05-17T20:45:14.657Z,96008.28
2023-05-17T20:47:41.516Z,96008.28
2023-05-17T20:50:09.059Z,96010.19
2023-05-17T20:52:39.298Z,96008.59
2023-05-17T20:55:08.736Z,96015.63
2023-05-17T20:57:35.477Z,96018.03
2023-05-17T21:00:02.273Z,96011.00
2023-05-17T21:02:28.953Z,96011.81
2023-05-17T21:04:55.765Z,96010.69
2023-05-17T21:07:22.569Z,96007.16
2023-05-17T21:09:49.218Z,96008.78
2023-05-17T21:12:15.823Z,96007.16
2023-05-17T21:14:42.420Z,96008.78
2023-05-17T21:17:09.008Z,96008.78
2023-05-17T21:19:35.643Z,96006.84
2023-05-17T21:22:02.412Z,96004.44
2023-05-17T21:24:29.030Z,96011.00
2023-05-17T21:26:55.731Z,96008.59
2023-05-17T21:29:22.485Z,96008.91
2023-05-17T21:31:49.228Z,96005.41
2023-05-17T21:34:15.981Z,96009.22
2023-05-17T21:36:42.659Z,96012.25
2023-05-17T21:39:09.375Z,96007.94
2023-05-17T21:41:36.075Z,96012.88
2023-05-17T21:44:02.940Z,96011.28
2023-05-17T21:46:29.633Z,96005.34
2023-05-17T21:48:56.364Z,96008.69
2023-05-17T21:51:23.038Z,96004.66
2023-05-17T21:53:49.648Z,96006.09
2023-05-17T21:56:16.335Z,96001.59
2023-05-17T21:58:43.155Z,96005.09
2023-05-17T22:01:09.943Z,95997.88
2023-05-17T22:03:36.669Z,96003.16
2023-05-17T22:06:03.544Z,96006.81
2023-05-17T22:08:30.238Z,95997.38
2023-05-17T22:10:56.935Z,96003.41
2023-05-17T22:13:23.616Z,95995.88
2023-05-17T22:15:50.334Z,95989.94
2023-05-17T22:18:17.253Z,95998.41
2023-05-17T22:20:44.113Z,95988.97
2023-05-17T22:23:10.855Z,95998.22
2023-05-17T22:25:37.801Z,95989.28
2023-05-17T22:28:04.453Z,95991.19
2023-05-17T22:30:31.422Z,95986.84
2023-05-17T22:32:58.534Z,95982.53
2023-05-17T22:35:25.347Z,95987.47
2023-05-17T22:37:52.003Z,95988.56
2023-05-17T22:40:19.010Z,95983.75
2023-05-17T22:42:45.780Z,95984.38
2023-05-17T22:45:12.542Z,95989.63
2023-05-17T22:47:39.293Z,95979.19
2023-05-17T22:50:06.426Z,95978.19
2023-05-17T22:52:33.103Z,95978.94
2023-05-17T22:54:59.696Z,95973.16
2023-05-17T22:57:26.403Z,95974.69
2023-05-17T22:59:53.169Z,95966.44
2023-05-17T23:02:19.879Z,95969.88
2023-05-17T23:04:46.697Z,95969.50
2023-05-17T23:07:13.370Z,95965.88
2023-05-17T23:09:40.039Z,95957.66
2023-05-17T23:12:07.691Z,95961.88
2023-05-17T23:14:35.332Z,95963.72
2023-05-17T23:17:04.364Z,95954.69
2023-05-17T23:19:32.411Z,95963.53
2023-05-17T23:21:59.212Z,95951.88
2023-05-17T23:24:26.036Z,95949.97
2023-05-17T23:26:52.744Z,95951.47
2023-05-17T23:29:19.416Z,95958.09
2023-05-17T23:31:46.176Z,95952.78
2023-05-17T23:34:12.919Z,95951.56
2023-05-17T23:36:39.541Z,95948.97
2023-05-17T23:39:06.274Z,95944.44
2023-05-17T23:41:33.049Z,95944.00
2023-05-17T23:43:59.624Z,95943.00
2023-05-17T23:46:26.419Z,95943.91
2023-05-17T23:48:53.078Z,95941.28
2023-05-17T23:51:20.209Z,95935.66
2023-05-17T23:53:46.941Z,95936.28
2023-05-17T23:56:13.691Z,95934.94
2023-05-17T23:58:40.415Z,95934.75
